sensor_id;sensor_type;location;lat;lon;timestamp;P1;durP1;ratioP1;P2;durP2;ratioP2
44919;SDS011;30655;53.094;6.072;2022-09-14T00:01:47;3.55;;;2.60;;
44919;SDS011;30655;53.094;6.072;2022-09-14T00:04:22;6.30;;;3.10;;
44919;SDS011;30655;53.094;6.072;2022-09-14T00:07:02;4.63;;;2.90;;
44919;SDS011;30655;53.094;6.072;2022-09-14T00:09:32;5.82;;;3.00;;
44919;SDS011;30655;53.094;6.072;2022-09-14T00:11:59;4.90;;;3.50;;
44919;SDS011;30655;53.094;6.072;2022-09-14T01:26:54;8.70;;;3.53;;
44919;SDS011;30655;53.094;6.072;2022-09-14T01:30:21;4.65;;;4.00;;
44919;SDS011;30655;53.094;6.072;2022-09-14T01:33:14;9.27;;;4.15;;
44919;SDS011;30655;53.094;6.072;2022-09-14T01:36:01;5.75;;;4.00;;
44919;SDS011;30655;53.094;6.072;2022-09-14T01:38:46;6.18;;;3.95;;
44919;SDS011;30655;53.094;6.072;2022-09-14T01:41:38;5.53;;;4.22;;
44919;SDS011;30655;53.094;6.072;2022-09-14T01:44:36;6.78;;;4.50;;
44919;SDS011;30655;53.094;6.072;2022-09-14T01:47:51;4.63;;;4.07;;
44919;SDS011;30655;53.094;6.072;2022-09-14T01:50:25;5.70;;;4.10;;
44919;SDS011;30655;53.094;6.072;2022-09-14T01:53:04;9.82;;;4.05;;
44919;SDS011;30655;53.094;6.072;2022-09-14T01:55:43;5.32;;;3.78;;
44919;SDS011;30655;53.094;6.072;2022-09-14T02:01:55;4.90;;;3.95;;
44919;SDS011;30655;53.094;6.072;2022-09-14T02:04:46;6.50;;;3.93;;
44919;SDS011;30655;53.094;6.072;2022-09-14T02:10:13;11.75;;;3.50;;
44919;SDS011;30655;53.094;6.072;2022-09-14T02:13:04;5.18;;;4.05;;
44919;SDS011;30655;53.094;6.072;2022-09-14T02:15:54;10.13;;;4.07;;
44919;SDS011;30655;53.094;6.072;2022-09-14T02:18:58;6.95;;;4.43;;
44919;SDS011;30655;53.094;6.072;2022-09-14T02:21:35;4.43;;;4.03;;
44919;SDS011;30655;53.094;6.072;2022-09-14T02:24:51;5.53;;;3.40;;
44919;SDS011;30655;53.094;6.072;2022-09-14T02:31:01;9.45;;;4.30;;
44919;SDS011;30655;53.094;6.072;2022-09-14T02:43:41;6.18;;;4.32;;
44919;SDS011;30655;53.094;6.072;2022-09-14T02:47:12;7.75;;;4.25;;
44919;SDS011;30655;53.094;6.072;2022-09-14T02:50:09;4.88;;;4.28;;
44919;SDS011;30655;53.094;6.072;2022-09-14T02:53:17;5.70;;;3.83;;
44919;SDS011;30655;53.094;6.072;2022-09-14T02:56:29;5.88;;;4.20;;
44919;SDS011;30655;53.094;6.072;2022-09-14T02:59:15;5.63;;;4.30;;
44919;SDS011;30655;53.094;6.072;2022-09-14T03:02:02;10.57;;;4.30;;
44919;SDS011;30655;53.094;6.072;2022-09-14T03:10:22;6.95;;;4.32;;
44919;SDS011;30655;53.094;6.072;2022-09-14T03:19:46;6.38;;;3.88;;
44919;SDS011;30655;53.094;6.072;2022-09-14T03:22:36;7.97;;;4.20;;
44919;SDS011;30655;53.094;6.072;2022-09-14T03:25:22;6.57;;;4.38;;
44919;SDS011;30655;53.094;6.072;2022-09-14T03:28:01;5.53;;;4.28;;
44919;SDS011;30655;53.094;6.072;2022-09-14T03:30:42;5.00;;;4.25;;
44919;SDS011;30655;53.094;6.072;2022-09-14T03:36:24;4.00;;;3.58;;
44919;SDS011;30655;53.094;6.072;2022-09-14T03:39:03;5.82;;;4.22;;
44919;SDS011;30655;53.094;6.072;2022-09-14T03:41:34;5.32;;;4.40;;
44919;SDS011;30655;53.094;6.072;2022-09-14T03:44:33;4.75;;;4.28;;
44919;SDS011;30655;53.094;6.072;2022-09-14T03:47:36;6.00;;;4.40;;
44919;SDS011;30655;53.094;6.072;2022-09-14T04:04:31;6.57;;;4.28;;
44919;SDS011;30655;53.094;6.072;2022-09-14T04:07:32;5.80;;;4.10;;
44919;SDS011;30655;53.094;6.072;2022-09-14T04:10:30;4.93;;;4.20;;
44919;SDS011;30655;53.094;6.072;2022-09-14T04:13:04;6.93;;;4.20;;
44919;SDS011;30655;53.094;6.072;2022-09-14T04:15:35;6.28;;;3.80;;
44919;SDS011;30655;53.094;6.072;2022-09-14T04:18:31;5.53;;;4.10;;
44919;SDS011;30655;53.094;6.072;2022-09-14T04:21:19;5.60;;;4.30;;
44919;SDS011;30655;53.094;6.072;2022-09-14T04:23:59;8.20;;;4.03;;
44919;SDS011;30655;53.094;6.072;2022-09-14T04:26:49;6.55;;;5.32;;
44919;SDS011;30655;53.094;6.072;2022-09-14T04:29:33;7.35;;;4.35;;
44919;SDS011;30655;53.094;6.072;2022-09-14T04:32:10;5.18;;;4.70;;
44919;SDS011;30655;53.094;6.072;2022-09-14T04:34:47;5.90;;;4.20;;
44919;SDS011;30655;53.094;6.072;2022-09-14T04:37:23;9.48;;;4.50;;
44919;SDS011;30655;53.094;6.072;2022-09-14T04:40:40;7.25;;;4.80;;
44919;SDS011;30655;53.094;6.072;2022-09-14T04:43:13;7.40;;;4.28;;
44919;SDS011;30655;53.094;6.072;2022-09-14T04:46:11;9.60;;;4.85;;
44919;SDS011;30655;53.094;6.072;2022-09-14T04:49:21;5.65;;;4.30;;
44919;SDS011;30655;53.094;6.072;2022-09-14T04:52:06;7.63;;;4.60;;
44919;SDS011;30655;53.094;6.072;2022-09-14T04:58:15;5.13;;;4.63;;
44919;SDS011;30655;53.094;6.072;2022-09-14T05:21:56;9.18;;;5.30;;
44919;SDS011;30655;53.094;6.072;2022-09-14T05:28:14;6.32;;;5.32;;
44919;SDS011;30655;53.094;6.072;2022-09-14T05:30:55;6.03;;;4.72;;
44919;SDS011;30655;53.094;6.072;2022-09-14T05:39:49;11.15;;;5.07;;
44919;SDS011;30655;53.094;6.072;2022-09-14T05:42:19;5.20;;;4.60;;
44919;SDS011;30655;53.094;6.072;2022-09-14T05:45:32;4.80;;;3.92;;
44919;SDS011;30655;53.094;6.072;2022-09-14T05:48:07;6.43;;;4.38;;
44919;SDS011;30655;53.094;6.072;2022-09-14T05:50:51;7.33;;;4.70;;
44919;SDS011;30655;53.094;6.072;2022-09-14T05:54:31;14.38;;;4.80;;
44919;SDS011;30655;53.094;6.072;2022-09-14T05:56:42;8.63;;;4.20;;
44919;SDS011;30655;53.094;6.072;2022-09-14T05:59:19;6.38;;;4.40;;
44919;SDS011;30655;53.094;6.072;2022-09-14T06:02:16;8.45;;;3.80;;
44919;SDS011;30655;53.094;6.072;2022-09-14T06:05:03;6.40;;;3.75;;
44919;SDS011;30655;53.094;6.072;2022-09-14T06:10:40;6.25;;;3.63;;
44919;SDS011;30655;53.094;6.072;2022-09-14T06:13:40;14.75;;;4.18;;
44919;SDS011;30655;53.094;6.072;2022-09-14T06:16:27;7.85;;;4.07;;
44919;SDS011;30655;53.094;6.072;2022-09-14T06:19:24;5.50;;;3.55;;
44919;SDS011;30655;53.094;6.072;2022-09-14T06:22:24;8.10;;;4.22;;
44919;SDS011;30655;53.094;6.072;2022-09-14T06:25:12;6.07;;;3.80;;
44919;SDS011;30655;53.094;6.072;2022-09-14T06:31:01;4.50;;;3.85;;
44919;SDS011;30655;53.094;6.072;2022-09-14T06:33:55;5.32;;;3.40;;
44919;SDS011;30655;53.094;6.072;2022-09-14T06:36:42;4.20;;;3.80;;
44919;SDS011;30655;53.094;6.072;2022-09-14T06:39:15;6.05;;;3.45;;
44919;SDS011;30655;53.094;6.072;2022-09-14T06:45:34;9.75;;;2.95;;
44919;SDS011;30655;53.094;6.072;2022-09-14T06:48:24;7.28;;;2.90;;
44919;SDS011;30655;53.094;6.072;2022-09-14T07:00:44;5.80;;;3.20;;
44919;SDS011;30655;53.094;6.072;2022-09-14T07:03:27;6.05;;;3.78;;
44919;SDS011;30655;53.094;6.072;2022-09-14T07:06:02;2.97;;;2.25;;
44919;SDS011;30655;53.094;6.072;2022-09-14T07:08:36;5.65;;;1.88;;
44919;SDS011;30655;53.094;6.072;2022-09-14T07:11:06;4.78;;;2.17;;
44919;SDS011;30655;53.094;6.072;2022-09-14T07:13:34;5.65;;;2.25;;
44919;SDS011;30655;53.094;6.072;2022-09-14T07:16:05;6.20;;;2.30;;
44919;SDS011;30655;53.094;6.072;2022-09-14T07:18:37;9.80;;;2.70;;
44919;SDS011;30655;53.094;6.072;2022-09-14T07:24:02;5.28;;;2.05;;
44919;SDS011;30655;53.094;6.072;2022-09-14T07:26:37;4.15;;;1.92;;
44919;SDS011;30655;53.094;6.072;2022-09-14T07:31:44;2.47;;;1.45;;
44919;SDS011;30655;53.094;6.072;2022-09-14T07:34:18;2.53;;;1.23;;
44919;SDS011;30655;53.094;6.072;2022-09-14T07:36:48;4.22;;;1.70;;
44919;SDS011;30655;53.094;6.072;2022-09-14T07:39:34;3.13;;;1.20;;
44919;SDS011;30655;53.094;6.072;2022-09-14T07:42:18;10.02;;;1.30;;
44919;SDS011;30655;53.094;6.072;2022-09-14T07:44:51;10.63;;;1.13;;
44919;SDS011;30655;53.094;6.072;2022-09-14T07:47:25;5.53;;;1.40;;
44919;SDS011;30655;53.094;6.072;2022-09-14T07:49:57;4.57;;;1.60;;
44919;SDS011;30655;53.094;6.072;2022-09-14T07:52:27;3.10;;;1.08;;
44919;SDS011;30655;53.094;6.072;2022-09-14T07:55:04;3.70;;;1.05;;
44919;SDS011;30655;53.094;6.072;2022-09-14T07:57:42;3.97;;;1.10;;
44919;SDS011;30655;53.094;6.072;2022-09-14T08:00:26;3.85;;;1.55;;
44919;SDS011;30655;53.094;6.072;2022-09-14T08:02:54;6.68;;;1.10;;
44919;SDS011;30655;53.094;6.072;2022-09-14T08:05:27;2.28;;;0.77;;
44919;SDS011;30655;53.094;6.072;2022-09-14T08:08:01;2.88;;;1.02;;
44919;SDS011;30655;53.094;6.072;2022-09-14T08:10:38;5.22;;;1.00;;
44919;SDS011;30655;53.094;6.072;2022-09-14T08:16:05;3.90;;;1.15;;
44919;SDS011;30655;53.094;6.072;2022-09-14T08:18:39;2.80;;;1.23;;
44919;SDS011;30655;53.094;6.072;2022-09-14T08:21:12;3.88;;;0.93;;
44919;SDS011;30655;53.094;6.072;2022-09-14T08:23:43;9.38;;;1.20;;
44919;SDS011;30655;53.094;6.072;2022-09-14T08:26:14;9.38;;;1.20;;
44919;SDS011;30655;53.094;6.072;2022-09-14T08:28:43;4.70;;;0.98;;
44919;SDS011;30655;53.094;6.072;2022-09-14T08:31:13;3.33;;;1.10;;
44919;SDS011;30655;53.094;6.072;2022-09-14T08:33:45;10.02;;;1.27;;
44919;SDS011;30655;53.094;6.072;2022-09-14T08:36:19;5.25;;;1.13;;
44919;SDS011;30655;53.094;6.072;2022-09-14T08:38:51;3.38;;;1.25;;
44919;SDS011;30655;53.094;6.072;2022-09-14T08:41:26;6.38;;;1.50;;
44919;SDS011;30655;53.094;6.072;2022-09-14T08:44:01;8.35;;;1.35;;
44919;SDS011;30655;53.094;6.072;2022-09-14T08:46:40;5.97;;;0.85;;
44919;SDS011;30655;53.094;6.072;2022-09-14T08:49:17;3.67;;;1.10;;
44919;SDS011;30655;53.094;6.072;2022-09-14T08:51:59;3.75;;;0.85;;
44919;SDS011;30655;53.094;6.072;2022-09-14T08:54:29;5.75;;;0.60;;
44919;SDS011;30655;53.094;6.072;2022-09-14T08:56:58;10.48;;;1.73;;
44919;SDS011;30655;53.094;6.072;2022-09-14T08:59:39;4.82;;;0.73;;
44919;SDS011;30655;53.094;6.072;2022-09-14T09:02:20;7.28;;;1.02;;
44919;SDS011;30655;53.094;6.072;2022-09-14T09:04:58;3.28;;;0.52;;
44919;SDS011;30655;53.094;6.072;2022-09-14T09:07:36;13.00;;;1.10;;
44919;SDS011;30655;53.094;6.072;2022-09-14T09:10:13;2.90;;;0.68;;
44919;SDS011;30655;53.094;6.072;2022-09-14T09:12:43;6.13;;;0.77;;
44919;SDS011;30655;53.094;6.072;2022-09-14T09:15:14;4.40;;;0.60;;
44919;SDS011;30655;53.094;6.072;2022-09-14T09:17:47;5.35;;;1.05;;
44919;SDS011;30655;53.094;6.072;2022-09-14T09:20:21;4.18;;;0.68;;
44919;SDS011;30655;53.094;6.072;2022-09-14T09:23:14;5.30;;;0.85;;
44919;SDS011;30655;53.094;6.072;2022-09-14T09:25:55;6.78;;;1.45;;
44919;SDS011;30655;53.094;6.072;2022-09-14T09:28:52;4.32;;;0.80;;
44919;SDS011;30655;53.094;6.072;2022-09-14T09:31:25;5.13;;;0.73;;
44919;SDS011;30655;53.094;6.072;2022-09-14T09:33:58;5.05;;;0.90;;
44919;SDS011;30655;53.094;6.072;2022-09-14T09:36:35;4.00;;;0.70;;
44919;SDS011;30655;53.094;6.072;2022-09-14T09:39:10;5.28;;;0.60;;
44919;SDS011;30655;53.094;6.072;2022-09-14T09:41:50;2.42;;;0.60;;
44919;SDS011;30655;53.094;6.072;2022-09-14T09:47:34;3.85;;;0.60;;
44919;SDS011;30655;53.094;6.072;2022-09-14T09:50:15;4.05;;;0.52;;
44919;SDS011;30655;53.094;6.072;2022-09-14T09:52:49;2.92;;;0.43;;
44919;SDS011;30655;53.094;6.072;2022-09-14T09:55:32;3.13;;;0.52;;
44919;SDS011;30655;53.094;6.072;2022-09-14T09:58:22;3.10;;;1.00;;
44919;SDS011;30655;53.094;6.072;2022-09-14T10:01:01;4.75;;;0.70;;
44919;SDS011;30655;53.094;6.072;2022-09-14T10:07:01;3.72;;;1.45;;
44919;SDS011;30655;53.094;6.072;2022-09-14T10:09:32;4.45;;;0.80;;
44919;SDS011;30655;53.094;6.072;2022-09-14T10:12:04;2.28;;;0.73;;
44919;SDS011;30655;53.094;6.072;2022-09-14T10:17:33;4.05;;;0.85;;
44919;SDS011;30655;53.094;6.072;2022-09-14T10:20:06;1.38;;;0.55;;
44919;SDS011;30655;53.094;6.072;2022-09-14T10:32:19;3.92;;;0.57;;
44919;SDS011;30655;53.094;6.072;2022-09-14T10:35:09;2.97;;;0.73;;
44919;SDS011;30655;53.094;6.072;2022-09-14T10:38:02;4.97;;;0.90;;
44919;SDS011;30655;53.094;6.072;2022-09-14T10:40:58;3.92;;;0.90;;
44919;SDS011;30655;53.094;6.072;2022-09-14T10:47:18;3.28;;;0.70;;
44919;SDS011;30655;53.094;6.072;2022-09-14T10:51:01;5.10;;;1.07;;
44919;SDS011;30655;53.094;6.072;2022-09-14T10:53:31;3.35;;;0.68;;
44919;SDS011;30655;53.094;6.072;2022-09-14T11:21:14;3.38;;;0.73;;
44919;SDS011;30655;53.094;6.072;2022-09-14T11:55:18;3.65;;;0.90;;
44919;SDS011;30655;53.094;6.072;2022-09-14T12:17:21;3.13;;;0.70;;
44919;SDS011;30655;53.094;6.072;2022-09-14T12:18:57;4.75;;;0.90;;
44919;SDS011;30655;53.094;6.072;2022-09-14T12:25:23;5.47;;;0.90;;
44919;SDS011;30655;53.094;6.072;2022-09-14T12:49:13;3.58;;;0.80;;
44919;SDS011;30655;53.094;6.072;2022-09-14T12:55:43;4.00;;;0.80;;
44919;SDS011;30655;53.094;6.072;2022-09-14T12:58:51;2.17;;;0.70;;
44919;SDS011;30655;53.094;6.072;2022-09-14T13:09:04;2.50;;;0.82;;
44919;SDS011;30655;53.094;6.072;2022-09-14T13:29:00;3.70;;;0.75;;
44919;SDS011;30655;53.094;6.072;2022-09-14T14:06:20;3.95;;;0.70;;
44919;SDS011;30655;53.094;6.072;2022-09-14T14:09:00;4.95;;;0.70;;
44919;SDS011;30655;53.094;6.072;2022-09-14T14:11:44;5.30;;;0.75;;
44919;SDS011;30655;53.094;6.072;2022-09-14T14:14:29;2.95;;;0.52;;
44919;SDS011;30655;53.094;6.072;2022-09-14T14:20:45;3.03;;;0.60;;
44919;SDS011;30655;53.094;6.072;2022-09-14T14:23:20;3.13;;;0.80;;
44919;SDS011;30655;53.094;6.072;2022-09-14T14:32:55;2.72;;;0.77;;
44919;SDS011;30655;53.094;6.072;2022-09-14T14:38:37;1.40;;;0.50;;
44919;SDS011;30655;53.094;6.072;2022-09-14T14:43:31;2.72;;;0.68;;
44919;SDS011;30655;53.094;6.072;2022-09-14T14:44:43;2.20;;;0.73;;
44919;SDS011;30655;53.094;6.072;2022-09-14T15:21:50;2.75;;;0.70;;
44919;SDS011;30655;53.094;6.072;2022-09-14T15:31:26;4.93;;;0.70;;
44919;SDS011;30655;53.094;6.072;2022-09-14T15:55:08;4.05;;;0.95;;
44919;SDS011;30655;53.094;6.072;2022-09-14T15:57:33;5.88;;;1.38;;
44919;SDS011;30655;53.094;6.072;2022-09-14T16:00:32;3.88;;;1.15;;
44919;SDS011;30655;53.094;6.072;2022-09-14T16:20:54;3.35;;;0.90;;
44919;SDS011;30655;53.094;6.072;2022-09-14T16:23:56;4.78;;;0.98;;
44919;SDS011;30655;53.094;6.072;2022-09-14T16:26:34;8.40;;;1.20;;
44919;SDS011;30655;53.094;6.072;2022-09-14T16:33:18;3.70;;;1.20;;
44919;SDS011;30655;53.094;6.072;2022-09-14T16:43:19;2.75;;;0.90;;
44919;SDS011;30655;53.094;6.072;2022-09-14T16:46:19;2.80;;;0.70;;
44919;SDS011;30655;53.094;6.072;2022-09-14T16:53:36;4.38;;;0.75;;
44919;SDS011;30655;53.094;6.072;2022-09-14T16:56:54;8.57;;;1.17;;
44919;SDS011;30655;53.094;6.072;2022-09-14T17:06:35;4.70;;;0.90;;
44919;SDS011;30655;53.094;6.072;2022-09-14T17:22:46;4.30;;;1.25;;
44919;SDS011;30655;53.094;6.072;2022-09-14T17:41:27;1.75;;;0.60;;
44919;SDS011;30655;53.094;6.072;2022-09-14T17:44:42;2.33;;;0.57;;
44919;SDS011;30655;53.094;6.072;2022-09-14T17:47:33;4.60;;;0.57;;
44919;SDS011;30655;53.094;6.072;2022-09-14T17:50:10;2.15;;;0.52;;
44919;SDS011;30655;53.094;6.072;2022-09-14T17:52:37;1.63;;;0.50;;
44919;SDS011;30655;53.094;6.072;2022-09-14T17:55:31;2.17;;;0.50;;
44919;SDS011;30655;53.094;6.072;2022-09-14T17:58:05;2.70;;;0.75;;
44919;SDS011;30655;53.094;6.072;2022-09-14T18:03:20;4.68;;;0.68;;
44919;SDS011;30655;53.094;6.072;2022-09-14T18:06:11;1.80;;;0.70;;
44919;SDS011;30655;53.094;6.072;2022-09-14T18:09:21;3.53;;;0.70;;
44919;SDS011;30655;53.094;6.072;2022-09-14T18:32:16;1.33;;;0.60;;
44919;SDS011;30655;53.094;6.072;2022-09-14T18:42:29;1.65;;;0.95;;
44919;SDS011;30655;53.094;6.072;2022-09-14T18:49:11;1.88;;;1.23;;
44919;SDS011;30655;53.094;6.072;2022-09-14T18:52:12;5.80;;;1.55;;
44919;SDS011;30655;53.094;6.072;2022-09-14T18:58:31;2.78;;;0.88;;
44919;SDS011;30655;53.094;6.072;2022-09-14T19:01:22;3.33;;;0.60;;
44919;SDS011;30655;53.094;6.072;2022-09-14T19:04:17;1.65;;;1.55;;
44919;SDS011;30655;53.094;6.072;2022-09-14T19:06:53;3.70;;;1.83;;
44919;SDS011;30655;53.094;6.072;2022-09-14T19:12:51;2.70;;;0.80;;
44919;SDS011;30655;53.094;6.072;2022-09-14T19:15:33;2.28;;;0.60;;
44919;SDS011;30655;53.094;6.072;2022-09-14T19:18:35;3.75;;;0.60;;
44919;SDS011;30655;53.094;6.072;2022-09-14T19:23:02;3.15;;;0.60;;
44919;SDS011;30655;53.094;6.072;2022-09-14T19:24:43;2.05;;;0.50;;
44919;SDS011;30655;53.094;6.072;2022-09-14T19:27:49;2.78;;;0.95;;
44919;SDS011;30655;53.094;6.072;2022-09-14T19:33:56;5.50;;;1.40;;
44919;SDS011;30655;53.094;6.072;2022-09-14T19:36:51;2.50;;;0.70;;
44919;SDS011;30655;53.094;6.072;2022-09-14T19:39:32;3.35;;;0.63;;
44919;SDS011;30655;53.094;6.072;2022-09-14T19:52:00;2.20;;;0.70;;
44919;SDS011;30655;53.094;6.072;2022-09-14T19:55:10;2.03;;;0.40;;
44919;SDS011;30655;53.094;6.072;2022-09-14T20:01:17;2.58;;;0.50;;
44919;SDS011;30655;53.094;6.072;2022-09-14T20:03:59;1.65;;;0.55;;
44919;SDS011;30655;53.094;6.072;2022-09-14T20:07:20;1.40;;;0.60;;
44919;SDS011;30655;53.094;6.072;2022-09-14T20:10:39;2.63;;;0.60;;
44919;SDS011;30655;53.094;6.072;2022-09-14T20:13:26;3.25;;;0.98;;
44919;SDS011;30655;53.094;6.072;2022-09-14T20:16:13;2.50;;;0.88;;
44919;SDS011;30655;53.094;6.072;2022-09-14T20:19:27;2.03;;;0.98;;
44919;SDS011;30655;53.094;6.072;2022-09-14T20:29:35;2.03;;;1.20;;
44919;SDS011;30655;53.094;6.072;2022-09-14T20:32:10;1.35;;;1.17;;
44919;SDS011;30655;53.094;6.072;2022-09-14T20:34:53;2.65;;;1.70;;
44919;SDS011;30655;53.094;6.072;2022-09-14T20:37:28;3.22;;;1.58;;
44919;SDS011;30655;53.094;6.072;2022-09-14T20:40:10;5.32;;;1.27;;
44919;SDS011;30655;53.094;6.072;2022-09-14T20:42:39;2.38;;;1.15;;
44919;SDS011;30655;53.094;6.072;2022-09-14T20:45:09;3.65;;;1.50;;
44919;SDS011;30655;53.094;6.072;2022-09-14T20:47:41;1.90;;;1.00;;
44919;SDS011;30655;53.094;6.072;2022-09-14T20:50:11;4.93;;;0.98;;
44919;SDS011;30655;53.094;6.072;2022-09-14T20:52:48;3.28;;;1.40;;
44919;SDS011;30655;53.094;6.072;2022-09-14T20:58:24;3.17;;;1.52;;
44919;SDS011;30655;53.094;6.072;2022-09-14T21:00:57;2.60;;;1.55;;
44919;SDS011;30655;53.094;6.072;2022-09-14T21:03:31;2.45;;;1.33;;
44919;SDS011;30655;53.094;6.072;2022-09-14T21:06:02;3.08;;;1.35;;
44919;SDS011;30655;53.094;6.072;2022-09-14T21:08:34;4.78;;;1.58;;
44919;SDS011;30655;53.094;6.072;2022-09-14T21:11:04;6.38;;;1.40;;
44919;SDS011;30655;53.094;6.072;2022-09-14T21:13:35;2.83;;;1.50;;
44919;SDS011;30655;53.094;6.072;2022-09-14T21:16:07;6.18;;;1.40;;
44919;SDS011;30655;53.094;6.072;2022-09-14T21:18:36;2.03;;;1.17;;
44919;SDS011;30655;53.094;6.072;2022-09-14T21:21:06;2.55;;;1.63;;
44919;SDS011;30655;53.094;6.072;2022-09-14T21:23:36;2.95;;;1.52;;
44919;SDS011;30655;53.094;6.072;2022-09-14T21:26:06;2.90;;;1.70;;
44919;SDS011;30655;53.094;6.072;2022-09-14T21:28:37;3.33;;;2.22;;
44919;SDS011;30655;53.094;6.072;2022-09-14T21:31:06;3.95;;;1.83;;
44919;SDS011;30655;53.094;6.072;2022-09-14T21:33:35;5.70;;;1.83;;
44919;SDS011;30655;53.094;6.072;2022-09-14T21:36:06;1.95;;;1.50;;
44919;SDS011;30655;53.094;6.072;2022-09-14T21:38:36;1.80;;;1.70;;
44919;SDS011;30655;53.094;6.072;2022-09-14T21:41:09;2.90;;;1.90;;
44919;SDS011;30655;53.094;6.072;2022-09-14T21:43:43;4.32;;;1.70;;
44919;SDS011;30655;53.094;6.072;2022-09-14T21:46:10;2.80;;;1.38;;
44919;SDS011;30655;53.094;6.072;2022-09-14T21:48:37;2.78;;;1.70;;
44919;SDS011;30655;53.094;6.072;2022-09-14T21:51:05;3.25;;;1.73;;
44919;SDS011;30655;53.094;6.072;2022-09-14T21:53:42;1.92;;;1.83;;
44919;SDS011;30655;53.094;6.072;2022-09-14T21:56:12;3.45;;;1.70;;
44919;SDS011;30655;53.094;6.072;2022-09-14T21:58:39;1.80;;;1.70;;
44919;SDS011;30655;53.094;6.072;2022-09-14T22:01:06;4.90;;;2.03;;
44919;SDS011;30655;53.094;6.072;2022-09-14T22:03:37;2.35;;;1.88;;
44919;SDS011;30655;53.094;6.072;2022-09-14T22:06:06;2.03;;;1.83;;
44919;SDS011;30655;53.094;6.072;2022-09-14T22:08:36;3.97;;;1.70;;
44919;SDS011;30655;53.094;6.072;2022-09-14T22:11:07;2.45;;;2.03;;
44919;SDS011;30655;53.094;6.072;2022-09-14T22:13:39;5.13;;;1.77;;
44919;SDS011;30655;53.094;6.072;2022-09-14T22:16:07;2.85;;;1.70;;
44919;SDS011;30655;53.094;6.072;2022-09-14T22:18:34;2.13;;;1.70;;
44919;SDS011;30655;53.094;6.072;2022-09-14T22:21:02;2.45;;;2.17;;
44919;SDS011;30655;53.094;6.072;2022-09-14T22:23:30;3.17;;;2.00;;
44919;SDS011;30655;53.094;6.072;2022-09-14T22:26:03;5.65;;;2.42;;
44919;SDS011;30655;53.094;6.072;2022-09-14T22:28:34;3.65;;;2.03;;
44919;SDS011;30655;53.094;6.072;2022-09-14T22:31:03;2.38;;;2.10;;
44919;SDS011;30655;53.094;6.072;2022-09-14T22:33:30;4.60;;;2.10;;
44919;SDS011;30655;53.094;6.072;2022-09-14T22:36:00;7.40;;;2.38;;
44919;SDS011;30655;53.094;6.072;2022-09-14T22:38:38;3.83;;;2.25;;
44919;SDS011;30655;53.094;6.072;2022-09-14T22:41:05;3.72;;;2.25;;
44919;SDS011;30655;53.094;6.072;2022-09-14T22:43:36;3.75;;;2.45;;
44919;SDS011;30655;53.094;6.072;2022-09-14T22:46:07;3.70;;;2.33;;
44919;SDS011;30655;53.094;6.072;2022-09-14T22:48:37;2.60;;;2.40;;
44919;SDS011;30655;53.094;6.072;2022-09-14T22:51:05;2.40;;;2.10;;
44919;SDS011;30655;53.094;6.072;2022-09-14T22:53:38;4.45;;;3.20;;
44919;SDS011;30655;53.094;6.072;2022-09-14T22:56:08;3.40;;;2.50;;
44919;SDS011;30655;53.094;6.072;2022-09-14T22:58:36;3.67;;;2.38;;
44919;SDS011;30655;53.094;6.072;2022-09-14T23:01:05;3.25;;;2.60;;
44919;SDS011;30655;53.094;6.072;2022-09-14T23:03:36;3.50;;;3.20;;
44919;SDS011;30655;53.094;6.072;2022-09-14T23:06:06;4.13;;;2.75;;
44919;SDS011;30655;53.094;6.072;2022-09-14T23:08:34;4.20;;;3.00;;
44919;SDS011;30655;53.094;6.072;2022-09-14T23:11:04;3.33;;;3.00;;
44919;SDS011;30655;53.094;6.072;2022-09-14T23:13:33;3.60;;;2.80;;
44919;SDS011;30655;53.094;6.072;2022-09-14T23:16:10;3.13;;;2.83;;
44919;SDS011;30655;53.094;6.072;2022-09-14T23:18:38;4.65;;;3.30;;
44919;SDS011;30655;53.094;6.072;2022-09-14T23:21:08;5.07;;;4.10;;
44919;SDS011;30655;53.094;6.072;2022-09-14T23:23:38;7.95;;;4.72;;
44919;SDS011;30655;53.094;6.072;2022-09-14T23:26:06;5.75;;;4.60;;
44919;SDS011;30655;53.094;6.072;2022-09-14T23:28:34;6.32;;;5.10;;
44919;SDS011;30655;53.094;6.072;2022-09-14T23:31:05;9.90;;;5.45;;
44919;SDS011;30655;53.094;6.072;2022-09-14T23:33:33;10.32;;;5.82;;
44919;SDS011;30655;53.094;6.072;2022-09-14T23:36:00;8.95;;;6.18;;
44919;SDS011;30655;53.094;6.072;2022-09-14T23:38:27;7.80;;;6.88;;
44919;SDS011;30655;53.094;6.072;2022-09-14T23:40:54;6.82;;;6.22;;
44919;SDS011;30655;53.094;6.072;2022-09-14T23:43:21;13.48;;;6.55;;
44919;SDS011;30655;53.094;6.072;2022-09-14T23:45:51;9.35;;;6.60;;
44919;SDS011;30655;53.094;6.072;2022-09-14T23:48:27;5.93;;;4.95;;
44919;SDS011;30655;53.094;6.072;2022-09-14T23:50:58;7.23;;;5.10;;
44919;SDS011;30655;53.094;6.072;2022-09-14T23:53:48;9.20;;;5.65;;
44919;SDS011;30655;53.094;6.072;2022-09-14T23:56:37;6.25;;;5.60;;
